createdAt,value
2022-10-20T00:00:36.459Z,100.00
2022-10-20T00:03:04.596Z,100.00
2022-10-20T00:05:32.565Z,100.00
2022-10-20T00:08:00.449Z,100.00
2022-10-20T00:10:28.380Z,100.00
2022-10-20T00:12:57.719Z,100.00
2022-10-20T00:15:27.130Z,100.00
2022-10-20T00:17:55.089Z,100.00
2022-10-20T00:20:24.211Z,100.00
2022-10-20T00:22:52.185Z,100.00
2022-10-20T00:25:20.102Z,100.00
2022-10-20T00:27:48.053Z,100.00
2022-10-20T00:30:16.028Z,100.00
2022-10-20T00:32:48.346Z,100.00
2022-10-20T00:35:16.424Z,100.00
2022-10-20T00:37:44.385Z,100.00
2022-10-20T00:40:14.498Z,100.00
2022-10-20T00:42:45.573Z,100.00
2022-10-20T00:45:24.714Z,100.00
2022-10-20T00:47:57.341Z,100.00
2022-10-20T00:50:28.989Z,100.00
2022-10-20T00:53:00.608Z,100.00
2022-10-20T00:55:32.176Z,100.00
2022-10-20T00:58:01.849Z,100.00
2022-10-20T01:00:30.992Z,100.00
2022-10-20T01:03:02.521Z,100.00
2022-10-20T01:05:32.641Z,100.00
2022-10-20T01:08:25.784Z,100.00
2022-10-20T01:11:06.939Z,100.00
2022-10-20T01:13:47.505Z,100.00
2022-10-20T01:16:24.326Z,100.00
2022-10-20T01:19:10.518Z,100.00
2022-10-20T01:22:09.713Z,100.00
2022-10-20T01:24:50.656Z,100.00
2022-10-20T01:27:33.008Z,100.00
2022-10-20T01:30:12.153Z,100.00
2022-10-20T01:32:53.512Z,100.00
2022-10-20T01:35:30.147Z,100.00
2022-10-20T01:38:07.469Z,100.00
2022-10-20T01:40:39.459Z,100.00
2022-10-20T01:43:11.851Z,100.00
2022-10-20T01:45:44.018Z,100.00
2022-10-20T01:48:14.150Z,100.00
2022-10-20T01:50:43.782Z,100.00
2022-10-20T01:53:37.563Z,100.00
2022-10-20T01:56:07.583Z,100.00
2022-10-20T01:59:08.737Z,100.00
2022-10-20T02:01:54.118Z,100.00
2022-10-20T02:04:31.334Z,100.00
2022-10-20T02:07:06.518Z,100.00
2022-10-20T02:09:51.874Z,100.00
2022-10-20T02:12:25.494Z,100.00
2022-10-20T02:14:55.208Z,100.00
2022-10-20T02:17:24.469Z,100.00
2022-10-20T02:19:56.060Z,100.00
2022-10-20T02:22:24.523Z,100.00
2022-10-20T02:24:53.218Z,100.00
2022-10-20T02:27:24.234Z,100.00
2022-10-20T02:29:57.515Z,100.00
2022-10-20T02:32:28.245Z,100.00
2022-10-20T02:34:56.335Z,100.00
2022-10-20T02:37:24.354Z,100.00
2022-10-20T02:39:52.200Z,100.00
2022-10-20T02:42:20.104Z,100.00
2022-10-20T02:44:48.002Z,100.00
2022-10-20T02:47:16.825Z,100.00
2022-10-20T02:49:46.045Z,100.00
2022-10-20T02:52:13.954Z,100.00
2022-10-20T02:54:42.109Z,100.00
2022-10-20T02:57:09.961Z,100.00
2022-10-20T02:59:37.897Z,100.00
2022-10-20T03:02:06.025Z,100.00
2022-10-20T03:04:34.013Z,100.00
2022-10-20T03:07:03.362Z,100.00
2022-10-20T03:09:31.403Z,100.00
2022-10-20T03:11:59.246Z,100.00
2022-10-20T03:14:27.114Z,100.00
2022-10-20T03:16:55.003Z,100.00
2022-10-20T03:19:22.864Z,100.00
2022-10-20T03:21:50.787Z,100.00
2022-10-20T03:24:20.091Z,100.00
2022-10-20T03:26:47.986Z,100.00
2022-10-20T03:29:18.194Z,100.00
2022-10-20T03:31:46.164Z,100.00
2022-10-20T03:34:14.150Z,100.00
2022-10-20T03:36:43.289Z,100.00
2022-10-20T03:39:11.121Z,100.00
2022-10-20T03:41:40.391Z,100.00
2022-10-20T03:44:08.624Z,100.00
2022-10-20T03:46:36.572Z,100.00
2022-10-20T03:49:05.162Z,100.00
2022-10-20T03:51:35.236Z,100.00
2022-10-20T03:54:03.107Z,100.00
2022-10-20T03:56:31.051Z,100.00
2022-10-20T03:59:00.299Z,100.00
2022-10-20T04:01:31.939Z,100.00
2022-10-20T04:04:00.065Z,100.00
2022-10-20T04:06:28.288Z,100.00
2022-10-20T04:08:56.406Z,100.00
2022-10-20T04:11:26.821Z,100.00
2022-10-20T04:13:54.780Z,100.00
2022-10-20T04:16:24.168Z,100.00
2022-10-20T04:18:53.331Z,100.00
2022-10-20T04:21:21.363Z,100.00
2022-10-20T04:23:49.339Z,100.00
2022-10-20T04:26:17.718Z,100.00
2022-10-20T04:28:45.793Z,100.00
2022-10-20T04:31:13.856Z,100.00
2022-10-20T04:34:08.737Z,100.00
2022-10-20T04:36:36.765Z,100.00
2022-10-20T04:39:07.159Z,100.00
2022-10-20T04:41:35.271Z,100.00
2022-10-20T04:44:03.438Z,100.00
2022-10-20T04:46:31.622Z,100.00
2022-10-20T04:48:59.700Z,100.00
2022-10-20T04:51:29.271Z,100.00
2022-10-20T04:53:57.514Z,100.00
2022-10-20T04:56:25.619Z,100.00
2022-10-20T04:58:55.447Z,100.00
2022-10-20T05:01:25.161Z,100.00
2022-10-20T05:03:53.527Z,100.00
2022-10-20T05:06:23.836Z,100.00
2022-10-20T05:08:54.952Z,100.00
2022-10-20T05:11:24.718Z,100.00
2022-10-20T05:13:52.787Z,100.00
2022-10-20T05:16:21.125Z,100.00
2022-10-20T05:18:54.767Z,100.00
2022-10-20T05:21:24.712Z,100.00
2022-10-20T05:23:58.960Z,100.00
2022-10-20T05:26:28.348Z,100.00
2022-10-20T05:28:57.083Z,100.00
2022-10-20T05:31:25.306Z,100.00
2022-10-20T05:33:54.916Z,100.00
2022-10-20T05:36:25.451Z,100.00
2022-10-20T05:38:55.481Z,100.00
2022-10-20T05:41:41.276Z,100.00
2022-10-20T05:44:10.254Z,100.00
2022-10-20T05:46:41.415Z,100.00
2022-10-20T05:49:14.129Z,100.00
2022-10-20T05:51:42.851Z,100.00
2022-10-20T05:54:12.744Z,100.00
2022-10-20T05:56:42.641Z,100.00
2022-10-20T05:59:12.144Z,100.00
2022-10-20T06:01:48.161Z,100.00
2022-10-20T06:04:18.090Z,100.00
2022-10-20T06:06:48.861Z,100.00
2022-10-20T06:09:18.232Z,100.00
2022-10-20T06:11:47.944Z,100.00
2022-10-20T06:14:17.500Z,100.00
2022-10-20T06:16:59.651Z,100.00
2022-10-20T06:19:28.322Z,100.00
2022-10-20T06:21:56.660Z,100.00
2022-10-20T06:24:24.963Z,100.00
2022-10-20T06:26:55.594Z,100.00
2022-10-20T06:29:24.624Z,100.00
2022-10-20T06:31:53.285Z,100.00
2022-10-20T06:34:23.974Z,100.00
2022-10-20T06:36:52.751Z,100.00
2022-10-20T06:39:22.660Z,100.00
2022-10-20T06:41:52.105Z,100.00
2022-10-20T06:44:23.591Z,100.00
2022-10-20T06:46:53.441Z,100.00
2022-10-20T06:49:23.173Z,100.00
2022-10-20T06:51:53.824Z,100.00
2022-10-20T06:54:21.920Z,100.00
2022-10-20T06:56:49.962Z,100.00
2022-10-20T06:59:18.151Z,100.00
2022-10-20T07:01:50.493Z,100.00
2022-10-20T07:04:18.756Z,100.00
2022-10-20T07:06:47.743Z,100.00
2022-10-20T07:09:18.436Z,100.00
2022-10-20T07:11:47.211Z,100.00
2022-10-20T07:14:15.525Z,100.00
2022-10-20T07:16:43.816Z,100.00
2022-10-20T07:19:13.479Z,100.00
2022-10-20T07:21:45.327Z,100.00
2022-10-20T07:24:15.712Z,100.00
2022-10-20T07:26:44.121Z,100.00
2022-10-20T07:29:13.873Z,100.00
2022-10-20T07:31:44.240Z,100.00
2022-10-20T07:34:26.417Z,100.00
2022-10-20T07:36:55.802Z,100.00
2022-10-20T07:39:24.173Z,100.00
2022-10-20T07:41:52.331Z,100.00
2022-10-20T07:44:20.753Z,100.00
2022-10-20T07:46:49.038Z,100.00
2022-10-20T07:52:07.209Z,100.00
2022-10-20T07:54:35.551Z,100.00
2022-10-20T07:57:03.779Z,100.00
2022-10-20T07:59:31.884Z,100.00
2022-10-20T08:02:00.501Z,100.00
2022-10-20T08:04:32.004Z,100.00
2022-10-20T08:07:01.196Z,100.00
2022-10-20T08:09:29.611Z,100.00
2022-10-20T08:11:58.067Z,100.00
2022-10-20T08:14:31.839Z,100.00
2022-10-20T08:17:00.485Z,100.00
2022-10-20T08:22:13.117Z,100.00
2022-10-20T08:24:41.290Z,100.00
2022-10-20T08:27:09.250Z,100.00
2022-10-20T08:29:37.990Z,100.00
2022-10-20T08:32:06.533Z,100.00
2022-10-20T08:34:35.864Z,100.00
2022-10-20T08:37:03.808Z,100.00
2022-10-20T08:39:31.870Z,100.00
2022-10-20T08:42:08.480Z,100.00
2022-10-20T08:44:39.331Z,100.00
2022-10-20T08:47:18.380Z,100.00
2022-10-20T08:49:48.054Z,100.00
2022-10-20T08:52:16.961Z,100.00
2022-10-20T08:54:45.200Z,100.00
2022-10-20T08:57:23.199Z,100.00
2022-10-20T08:59:53.792Z,100.00
2022-10-20T09:02:23.117Z,100.00
2022-10-20T09:04:56.629Z,100.00
2022-10-20T09:07:28.723Z,100.00
2022-10-20T09:10:05.725Z,100.00
2022-10-20T09:12:34.609Z,100.00
2022-10-20T09:15:04.159Z,100.00
2022-10-20T09:17:32.983Z,100.00
2022-10-20T09:20:04.147Z,100.00
2022-10-20T09:22:35.969Z,100.00
2022-10-20T09:25:05.395Z,100.00
2022-10-20T09:27:36.510Z,100.00
2022-10-20T09:30:16.497Z,100.00
2022-10-20T09:32:47.399Z,100.00
2022-10-20T09:35:24.266Z,100.00
2022-10-20T09:37:57.932Z,100.00
2022-10-20T09:40:47.751Z,100.00
2022-10-20T09:43:18.862Z,100.00
2022-10-20T09:45:53.150Z,100.00
2022-10-20T09:48:34.161Z,100.00
2022-10-20T09:51:04.701Z,100.00
2022-10-20T09:53:36.967Z,100.00
2022-10-20T09:56:08.230Z,100.00
2022-10-20T09:58:42.119Z,100.00
2022-10-20T10:01:16.276Z,100.00
2022-10-20T10:03:46.294Z,100.00
2022-10-20T10:06:28.950Z,100.00
2022-10-20T10:08:58.766Z,100.00
2022-10-20T10:11:32.796Z,100.00
2022-10-20T10:14:01.845Z,100.00
2022-10-20T10:16:46.976Z,100.00
2022-10-20T10:19:20.770Z,100.00
2022-10-20T10:21:55.901Z,100.00
2022-10-20T10:24:41.396Z,100.00
2022-10-20T10:27:30.366Z,100.00
2022-10-20T10:30:34.757Z,100.00
2022-10-20T10:33:03.355Z,100.00
2022-10-20T10:35:51.249Z,100.00
2022-10-20T10:38:27.585Z,100.00
2022-10-20T10:41:05.738Z,100.00
2022-10-20T10:43:46.229Z,100.00
2022-10-20T10:46:29.172Z,100.00
2022-10-20T10:49:28.252Z,100.00
2022-10-20T10:52:07.388Z,100.00
2022-10-20T10:54:49.621Z,100.00
2022-10-20T10:57:26.843Z,100.00
2022-10-20T10:59:55.054Z,100.00
2022-10-20T11:03:01.094Z,100.00
2022-10-20T11:05:57.692Z,100.00
2022-10-20T11:08:53.129Z,100.00
2022-10-20T11:11:38.756Z,100.00
2022-10-20T11:14:17.068Z,100.00
2022-10-20T11:16:55.521Z,100.00
2022-10-20T11:19:44.978Z,100.00
2022-10-20T11:23:22.548Z,100.00
2022-10-20T11:25:59.857Z,100.00
2022-10-20T11:28:37.676Z,100.00
2022-10-20T11:31:09.325Z,100.00
2022-10-20T11:33:45.009Z,100.00
2022-10-20T11:36:17.726Z,100.00
2022-10-20T11:38:50.727Z,100.00
2022-10-20T11:41:25.649Z,100.00
2022-10-20T11:44:01.171Z,100.00
2022-10-20T11:46:41.906Z,100.00
2022-10-20T11:49:13.057Z,100.00
2022-10-20T11:52:20.738Z,100.00
2022-10-20T11:55:21.242Z,100.00
2022-10-20T11:58:16.558Z,100.00
2022-10-20T12:01:01.055Z,100.00
2022-10-20T12:03:46.784Z,100.00
2022-10-20T12:06:38.572Z,100.00
2022-10-20T12:09:27.155Z,100.00
2022-10-20T12:11:58.271Z,100.00
2022-10-20T12:14:33.658Z,100.00
2022-10-20T12:17:28.956Z,100.00
2022-10-20T12:20:39.608Z,100.00
2022-10-20T12:23:07.897Z,100.00
2022-10-20T12:25:39.515Z,100.00
2022-10-20T12:28:47.166Z,100.00
2022-10-20T12:31:15.182Z,100.00
2022-10-20T12:34:01.671Z,100.00
2022-10-20T12:36:37.705Z,100.00
2022-10-20T12:39:30.315Z,100.00
2022-10-20T12:42:05.218Z,100.00
2022-10-20T12:44:43.082Z,100.00
2022-10-20T12:47:19.825Z,100.00
2022-10-20T12:49:57.745Z,100.00
2022-10-20T12:52:32.559Z,100.00
2022-10-20T12:55:07.424Z,100.00
2022-10-20T12:57:41.590Z,100.00
2022-10-20T13:00:50.564Z,100.00
2022-10-20T13:03:49.964Z,100.00
2022-10-20T13:06:46.833Z,100.00
2022-10-20T13:09:23.267Z,100.00
2022-10-20T13:14:56.980Z,100.00
2022-10-20T13:17:39.791Z,100.00
2022-10-20T13:20:44.440Z,100.00
2022-10-20T13:23:16.498Z,100.00
2022-10-20T13:25:53.229Z,100.00
2022-10-20T13:28:30.082Z,100.00
2022-10-20T13:31:20.318Z,98.70
2022-10-20T13:34:04.239Z,96.22
2022-10-20T13:36:51.604Z,93.57
2022-10-20T13:39:27.081Z,89.43
2022-10-20T13:42:04.734Z,89.95
2022-10-20T13:44:43.327Z,89.14
2022-10-20T13:47:40.489Z,88.45
2022-10-20T13:50:12.803Z,88.75
2022-10-20T13:52:44.922Z,88.71
2022-10-20T13:55:19.493Z,89.83
2022-10-20T13:57:57.150Z,90.02
2022-10-20T14:00:29.879Z,93.00
2022-10-20T14:03:03.363Z,92.35
2022-10-20T14:05:44.500Z,93.71
2022-10-20T14:08:22.535Z,97.73
2022-10-20T14:11:04.728Z,100.00
2022-10-20T14:13:57.166Z,100.00
2022-10-20T14:16:29.495Z,100.00
2022-10-20T14:19:05.776Z,100.00
2022-10-20T14:24:43.348Z,100.00
2022-10-20T14:27:21.450Z,100.00
2022-10-20T14:29:50.722Z,100.00
2022-10-20T14:32:21.053Z,100.00
2022-10-20T14:34:58.157Z,100.00
2022-10-20T14:37:31.927Z,100.00
2022-10-20T14:40:06.251Z,100.00
2022-10-20T14:42:36.004Z,100.00
2022-10-20T14:45:05.800Z,100.00
2022-10-20T14:47:39.894Z,100.00
2022-10-20T14:50:19.982Z,100.00
2022-10-20T14:52:52.935Z,100.00
2022-10-20T14:55:33.263Z,100.00
2022-10-20T14:58:02.893Z,100.00
2022-10-20T15:00:40.574Z,100.00
2022-10-20T15:03:16.683Z,100.00
2022-10-20T15:05:48.396Z,100.00
2022-10-20T15:08:26.296Z,100.00
2022-10-20T15:10:55.131Z,100.00
2022-10-20T15:13:28.544Z,100.00
2022-10-20T15:15:57.650Z,100.00
2022-10-20T15:18:26.728Z,100.00
2022-10-20T15:20:55.867Z,100.00
2022-10-20T15:23:27.752Z,100.00
2022-10-20T15:25:59.201Z,100.00
2022-10-20T15:28:38.362Z,100.00
2022-10-20T15:31:09.451Z,100.00
2022-10-20T15:33:37.377Z,100.00
2022-10-20T15:36:13.326Z,100.00
2022-10-20T15:38:41.251Z,100.00
2022-10-20T15:41:14.705Z,100.00
2022-10-20T15:43:46.548Z,100.00
2022-10-20T15:46:19.859Z,100.00
2022-10-20T15:48:48.317Z,100.00
2022-10-20T15:51:20.799Z,100.00
2022-10-20T15:53:54.742Z,100.00
2022-10-20T15:56:22.755Z,100.00
2022-10-20T15:58:52.215Z,100.00
2022-10-20T16:01:22.026Z,100.00
2022-10-20T16:03:51.329Z,100.00
2022-10-20T16:06:20.327Z,100.00
2022-10-20T16:09:16.497Z,100.00
2022-10-20T16:11:46.424Z,100.00
2022-10-20T16:14:16.796Z,100.00
2022-10-20T16:16:45.924Z,100.00
2022-10-20T16:19:13.998Z,100.00
2022-10-20T16:21:42.969Z,100.00
2022-10-20T16:24:11.523Z,100.00
2022-10-20T16:26:39.597Z,100.00
2022-10-20T16:29:07.578Z,100.00
2022-10-20T16:31:37.005Z,100.00
2022-10-20T16:34:05.167Z,100.00
2022-10-20T16:36:33.719Z,100.00
2022-10-20T16:39:01.898Z,100.00
2022-10-20T16:41:30.005Z,100.00
2022-10-20T16:44:00.945Z,100.00
2022-10-20T16:46:29.511Z,100.00
2022-10-20T16:48:59.044Z,100.00
2022-10-20T16:51:27.283Z,100.00
2022-10-20T16:53:59.478Z,100.00
2022-10-20T16:56:33.958Z,100.00
2022-10-20T16:59:02.809Z,100.00
2022-10-20T17:01:33.412Z,100.00
2022-10-20T17:04:05.318Z,100.00
2022-10-20T17:06:33.489Z,100.00
2022-10-20T17:09:01.845Z,100.00
2022-10-20T17:11:35.031Z,100.00
2022-10-20T17:14:03.313Z,100.00
2022-10-20T17:16:33.787Z,100.00
2022-10-20T17:19:09.624Z,100.00
2022-10-20T17:21:38.465Z,100.00
2022-10-20T17:24:12.590Z,100.00
2022-10-20T17:26:45.560Z,100.00
2022-10-20T17:29:13.851Z,100.00
2022-10-20T17:31:42.019Z,100.00
2022-10-20T17:34:11.622Z,100.00
2022-10-20T17:36:40.367Z,100.00
2022-10-20T17:39:10.823Z,100.00
2022-10-20T17:41:39.801Z,100.00
2022-10-20T17:44:09.440Z,100.00
2022-10-20T17:46:38.899Z,100.00
2022-10-20T17:49:08.925Z,100.00
2022-10-20T17:51:38.651Z,100.00
2022-10-20T17:54:07.129Z,100.00
2022-10-20T17:56:37.328Z,100.00
2022-10-20T17:59:07.452Z,100.00
2022-10-20T18:01:38.641Z,100.00
2022-10-20T18:04:08.849Z,100.00
2022-10-20T18:06:41.050Z,100.00
2022-10-20T18:09:11.860Z,100.00
2022-10-20T18:11:43.103Z,100.00
2022-10-20T18:14:11.354Z,100.00
2022-10-20T18:16:40.655Z,100.00
2022-10-20T18:19:13.127Z,100.00
2022-10-20T18:21:46.271Z,100.00
2022-10-20T18:24:16.325Z,100.00
2022-10-20T18:26:45.385Z,100.00
2022-10-20T18:29:15.500Z,100.00
2022-10-20T18:31:46.050Z,100.00
2022-10-20T18:34:17.213Z,100.00
2022-10-20T18:36:46.633Z,100.00
2022-10-20T18:39:15.998Z,100.00
2022-10-20T18:41:45.585Z,100.00
2022-10-20T18:44:15.669Z,100.00
2022-10-20T18:46:44.761Z,100.00
2022-10-20T18:49:14.880Z,100.00
2022-10-20T18:51:43.442Z,100.00
2022-10-20T18:54:13.857Z,100.00
2022-10-20T18:56:42.886Z,100.00
2022-10-20T18:59:16.247Z,100.00
2022-10-20T19:01:45.103Z,100.00
2022-10-20T19:04:13.483Z,100.00
2022-10-20T19:06:43.512Z,100.00
2022-10-20T19:09:16.025Z,100.00
2022-10-20T19:11:45.303Z,100.00
2022-10-20T19:14:14.519Z,100.00
2022-10-20T19:16:46.065Z,100.00
2022-10-20T19:19:14.436Z,100.00
2022-10-20T19:21:44.229Z,100.00
2022-10-20T19:24:17.544Z,100.00
2022-10-20T19:26:56.786Z,100.00
2022-10-20T19:29:35.072Z,100.00
2022-10-20T19:32:04.332Z,100.00
2022-10-20T19:34:37.015Z,100.00
2022-10-20T19:37:05.937Z,100.00
2022-10-20T19:39:38.024Z,100.00
2022-10-20T19:42:07.722Z,100.00
2022-10-20T19:44:36.183Z,100.00
2022-10-20T19:47:05.161Z,100.00
2022-10-20T19:49:33.541Z,100.00
2022-10-20T19:52:01.908Z,100.00
2022-10-20T19:54:30.451Z,100.00
2022-10-20T19:57:04.491Z,100.00
2022-10-20T19:59:43.863Z,100.00
2022-10-20T20:02:19.154Z,100.00
2022-10-20T20:04:47.234Z,100.00
2022-10-20T20:07:15.348Z,100.00
2022-10-20T20:09:44.669Z,100.00
2022-10-20T20:12:14.904Z,100.00
2022-10-20T20:14:42.965Z,100.00
2022-10-20T20:17:11.299Z,100.00
2022-10-20T20:19:39.690Z,100.00
2022-10-20T20:22:07.924Z,100.00
2022-10-20T20:24:37.545Z,100.00
2022-10-20T20:27:05.819Z,100.00
2022-10-20T20:29:35.671Z,100.00
2022-10-20T20:32:03.646Z,100.00
2022-10-20T20:34:31.586Z,100.00
2022-10-20T20:36:59.526Z,100.00
2022-10-20T20:39:27.527Z,100.00
2022-10-20T20:41:55.422Z,100.00
2022-10-20T20:46:52.794Z,100.00
2022-10-20T20:49:21.667Z,100.00
2022-10-20T20:51:49.593Z,100.00
2022-10-20T20:54:17.478Z,100.00
2022-10-20T20:56:45.457Z,100.00
2022-10-20T20:59:14.603Z,100.00
2022-10-20T21:01:45.119Z,100.00
2022-10-20T21:04:14.665Z,100.00
2022-10-20T21:07:01.082Z,100.00
2022-10-20T21:09:29.817Z,100.00
2022-10-20T21:11:58.012Z,100.00
2022-10-20T21:14:26.145Z,100.00
2022-10-20T21:16:54.396Z,100.00
2022-10-20T21:19:25.680Z,100.00
2022-10-20T21:21:57.371Z,100.00
2022-10-20T21:24:26.533Z,100.00
2022-10-20T21:26:54.483Z,100.00
2022-10-20T21:29:22.644Z,100.00
2022-10-20T21:31:50.749Z,100.00
2022-10-20T21:34:18.826Z,100.00
2022-10-20T21:36:50.719Z,100.00
2022-10-20T21:39:21.182Z,100.00
2022-10-20T21:41:49.994Z,100.00
2022-10-20T21:44:17.950Z,100.00
2022-10-20T21:46:49.396Z,100.00
2022-10-20T21:49:19.498Z,100.00
2022-10-20T21:51:52.254Z,100.00
2022-10-20T21:56:53.191Z,100.00
2022-10-20T21:59:24.184Z,100.00
2022-10-20T22:01:53.871Z,100.00
2022-10-20T22:04:24.563Z,100.00
2022-10-20T22:06:54.307Z,100.00
2022-10-20T22:09:22.766Z,100.00
2022-10-20T22:11:52.733Z,100.00
2022-10-20T22:14:33.021Z,100.00
2022-10-20T22:17:01.134Z,100.00
2022-10-20T22:19:29.161Z,100.00
2022-10-20T22:21:59.743Z,100.00
2022-10-20T22:24:28.302Z,100.00
2022-10-20T22:26:56.424Z,100.00
2022-10-20T22:29:24.410Z,100.00
2022-10-20T22:31:52.662Z,100.00
2022-10-20T22:34:21.019Z,100.00
2022-10-20T22:36:49.007Z,100.00
2022-10-20T22:39:18.465Z,100.00
2022-10-20T22:41:46.706Z,100.00
2022-10-20T22:44:14.676Z,100.00
2022-10-20T22:46:42.638Z,100.00
2022-10-20T22:49:12.411Z,100.00
2022-10-20T22:51:44.638Z,100.00
2022-10-20T22:54:12.646Z,100.00
2022-10-20T22:56:41.939Z,100.00
2022-10-20T22:59:09.977Z,100.00
2022-10-20T23:01:37.940Z,100.00
2022-10-20T23:04:06.243Z,100.00
2022-10-20T23:06:34.200Z,100.00
2022-10-20T23:09:02.311Z,100.00
2022-10-20T23:11:30.528Z,100.00
2022-10-20T23:14:00.046Z,100.00
2022-10-20T23:16:28.163Z,100.00
2022-10-20T23:18:56.246Z,100.00
2022-10-20T23:21:24.404Z,100.00
2022-10-20T23:23:52.524Z,100.00
2022-10-20T23:26:20.604Z,100.00
2022-10-20T23:28:48.952Z,100.00
2022-10-20T23:31:20.883Z,100.00
2022-10-20T23:33:51.278Z,100.00
2022-10-20T23:36:19.354Z,100.00
2022-10-20T23:38:47.736Z,100.00
2022-10-20T23:41:16.085Z,100.00
2022-10-20T23:43:44.353Z,100.00
2022-10-20T23:46:13.152Z,100.00
2022-10-20T23:48:42.635Z,94.17
2022-10-20T23:51:10.897Z,88.06
2022-10-20T23:53:39.107Z,82.95
2022-10-20T23:56:07.755Z,80.73
2022-10-20T23:58:36.588Z,77.49
